createdAt,value
2019-04-05T00:00:16.550Z,18.33
2019-04-05T00:02:45.810Z,17.73
2019-04-05T00:05:15.716Z,18.87
2019-04-05T00:07:45.009Z,17.77
2019-04-05T00:10:15.131Z,17.57
2019-04-05T00:12:44.358Z,17.77
2019-04-05T00:15:16.037Z,18.97
2019-04-05T00:17:45.214Z,17.73
2019-04-05T00:20:16.375Z,18.37
2019-04-05T00:22:45.714Z,18.67
2019-04-05T00:25:15.037Z,18.73
2019-04-05T00:27:45.143Z,18.43
2019-04-05T00:30:14.766Z,17.97
2019-04-05T00:32:44.066Z,18.53
2019-04-05T00:35:13.379Z,19.60
2019-04-05T00:37:42.628Z,19.23
2019-04-05T00:40:12.769Z,18.57
2019-04-05T00:42:42.015Z,17.97
2019-04-05T00:45:11.273Z,18.63
2019-04-05T00:47:40.615Z,18.83
2019-04-05T00:50:10.770Z,18.53
2019-04-05T00:52:40.022Z,19.83
2019-04-05T00:55:10.397Z,19.27
2019-04-05T00:57:40.160Z,19.50
2019-04-05T01:00:09.791Z,19.83
2019-04-05T01:02:39.162Z,18.93
2019-04-05T01:05:08.556Z,20.57
2019-04-05T01:07:37.866Z,20.83
2019-04-05T01:10:08.136Z,20.20
2019-04-05T01:12:39.101Z,18.77
2019-04-05T01:15:09.505Z,19.57
2019-04-05T01:17:39.179Z,19.50
2019-04-05T01:20:08.888Z,18.43
2019-04-05T01:22:39.313Z,18.50
2019-04-05T01:25:08.735Z,19.23
2019-04-05T01:27:40.619Z,18.50
2019-04-05T01:30:11.994Z,19.23
2019-04-05T01:32:41.242Z,19.07
2019-04-05T01:35:10.916Z,18.30
2019-04-05T01:37:41.484Z,18.83
2019-04-05T01:40:12.426Z,18.97
2019-04-05T01:42:42.662Z,19.50
2019-04-05T01:45:12.769Z,19.10
2019-04-05T01:47:42.092Z,19.50
2019-04-05T01:50:11.945Z,18.87
2019-04-05T01:52:42.445Z,19.57
2019-04-05T01:55:11.975Z,19.27
2019-04-05T01:57:41.327Z,20.27
2019-04-05T02:00:12.723Z,19.33
2019-04-05T02:02:42.353Z,18.90
2019-04-05T02:05:11.705Z,19.77
2019-04-05T02:07:41.503Z,19.53
2019-04-05T02:10:11.780Z,20.23
2019-04-05T02:12:41.503Z,20.50
2019-04-05T02:15:12.690Z,19.77
2019-04-05T02:17:41.990Z,18.83
2019-04-05T02:20:11.693Z,19.37
2019-04-05T02:22:41.000Z,19.20
2019-04-05T02:25:10.337Z,19.07
2019-04-05T02:27:39.670Z,18.63
2019-04-05T02:30:09.126Z,19.47
2019-04-05T02:32:38.459Z,19.93
2019-04-05T02:35:08.829Z,19.57
2019-04-05T02:37:38.296Z,19.10
2019-04-05T02:40:11.103Z,20.17
2019-04-05T02:42:43.173Z,18.97
2019-04-05T02:45:13.869Z,18.77
2019-04-05T02:47:45.933Z,19.03
2019-04-05T02:50:18.261Z,19.80
2019-04-05T02:52:50.541Z,19.50
2019-04-05T02:55:21.600Z,20.03
2019-04-05T02:57:51.327Z,19.33
2019-04-05T03:00:20.741Z,20.00
2019-04-05T03:02:51.215Z,20.77
2019-04-05T03:05:22.356Z,19.70
2019-04-05T03:07:51.843Z,20.20
2019-04-05T03:10:53.020Z,19.80
2019-04-05T03:13:23.905Z,20.07
2019-04-05T03:15:56.477Z,20.27
2019-04-05T03:18:29.037Z,20.03
2019-04-05T03:21:01.483Z,20.10
2019-04-05T03:23:33.409Z,19.60
2019-04-05T03:26:05.448Z,19.43
2019-04-05T03:28:37.604Z,19.33
2019-04-05T03:31:07.163Z,19.47
2019-04-05T03:33:36.659Z,20.00
2019-04-05T03:36:06.030Z,19.43
2019-04-05T03:38:35.368Z,19.77
2019-04-05T03:41:05.067Z,19.20
2019-04-05T03:43:35.468Z,19.67
2019-04-05T03:46:05.150Z,19.43
2019-04-05T03:48:34.877Z,20.20
2019-04-05T03:51:04.343Z,20.47
2019-04-05T03:53:33.647Z,20.10
2019-04-05T03:56:03.455Z,20.03
2019-04-05T03:58:33.156Z,20.70
2019-04-05T04:01:02.559Z,21.10
2019-04-05T04:03:33.416Z,20.27
2019-04-05T04:06:02.818Z,20.67
2019-04-05T04:08:32.905Z,21.03
2019-04-05T04:11:02.884Z,19.97
2019-04-05T04:13:33.126Z,19.50
2019-04-05T04:16:02.909Z,19.77
2019-04-05T04:18:32.928Z,19.00
2019-04-05T04:21:08.758Z,18.23
2019-04-05T04:23:37.993Z,19.50
2019-04-05T04:26:07.551Z,20.10
2019-04-05T04:28:37.626Z,18.63
2019-04-05T04:31:08.849Z,19.70
2019-04-05T04:33:38.169Z,18.47
2019-04-05T04:36:07.893Z,19.03
2019-04-05T04:38:37.297Z,19.40
2019-04-05T04:41:06.640Z,18.93
2019-04-05T04:43:36.607Z,20.03
2019-04-05T04:46:07.051Z,18.40
2019-04-05T04:48:36.982Z,18.33
2019-04-05T04:51:06.961Z,19.23
2019-04-05T04:53:36.367Z,18.90
2019-04-05T04:56:05.874Z,19.03
2019-04-05T04:58:35.520Z,18.40
2019-04-05T05:01:05.454Z,19.30
2019-04-05T05:03:34.711Z,18.30
2019-04-05T05:06:04.400Z,19.33
2019-04-05T05:08:34.011Z,18.27
2019-04-05T05:11:13.883Z,19.17
2019-04-05T05:13:34.598Z,19.93
2019-04-05T05:16:04.166Z,18.80
2019-04-05T05:18:33.515Z,18.57
2019-04-05T05:21:02.918Z,18.27
2019-04-05T05:23:33.258Z,18.13
2019-04-05T05:26:03.176Z,18.70
2019-04-05T05:28:32.957Z,18.43
2019-04-05T05:31:02.663Z,18.10
2019-04-05T05:33:32.435Z,19.53
2019-04-05T05:36:02.891Z,18.63
2019-04-05T05:38:32.318Z,18.77
2019-04-05T05:41:01.646Z,18.50
2019-04-05T05:43:30.924Z,19.63
2019-04-05T05:46:00.203Z,18.70
2019-04-05T05:48:31.129Z,19.17
2019-04-05T05:51:00.693Z,19.43
2019-04-05T05:53:30.014Z,17.80
2019-04-05T05:55:59.330Z,19.13
2019-04-05T05:58:28.563Z,19.20
2019-04-05T06:00:57.806Z,18.70
2019-04-05T06:03:27.086Z,18.87
2019-04-05T06:06:04.125Z,19.03
2019-04-05T06:08:29.348Z,18.27
2019-04-05T06:10:58.863Z,19.17
2019-04-05T06:13:28.091Z,19.07
2019-04-05T06:15:57.898Z,19.20
2019-04-05T06:18:27.240Z,19.13
2019-04-05T06:20:56.487Z,18.43
2019-04-05T06:23:33.624Z,18.70
2019-04-05T06:25:56.747Z,18.40
2019-04-05T06:28:26.083Z,18.57
2019-04-05T06:30:55.333Z,19.23
2019-04-05T06:33:31.341Z,18.17
2019-04-05T06:35:55.596Z,18.13
2019-04-05T06:38:25.282Z,18.73
2019-04-05T06:40:54.658Z,18.60
2019-04-05T06:43:23.916Z,18.13
2019-04-05T06:45:53.215Z,17.60
2019-04-05T06:48:22.418Z,16.70
2019-04-05T06:50:51.670Z,16.57
2019-04-05T06:53:21.273Z,16.60
2019-04-05T06:55:50.612Z,17.03
2019-04-05T06:58:20.269Z,16.40
2019-04-05T07:00:56.977Z,16.83
2019-04-05T07:03:20.701Z,17.30
2019-04-05T07:05:50.019Z,18.70
2019-04-05T07:08:19.720Z,16.80
2019-04-05T07:10:49.092Z,17.10
2019-04-05T07:13:18.411Z,15.83
2019-04-05T07:15:47.636Z,17.93
2019-04-05T07:18:16.942Z,21.10
2019-04-05T07:20:46.202Z,17.80
2019-04-05T07:23:15.454Z,16.07
2019-04-05T07:25:44.714Z,16.30
2019-04-05T07:28:14.545Z,15.33
2019-04-05T07:30:43.880Z,16.03
2019-04-05T07:33:13.208Z,16.30
2019-04-05T07:35:42.499Z,15.87
2019-04-05T07:38:11.802Z,16.17
2019-04-05T07:40:41.050Z,16.97
2019-04-05T07:43:10.595Z,16.00
2019-04-05T07:45:39.867Z,17.03
2019-04-05T07:48:09.436Z,16.83
2019-04-05T07:50:38.800Z,19.63
2019-04-05T07:53:08.143Z,21.20
2019-04-05T07:55:37.494Z,17.13
2019-04-05T07:58:06.844Z,24.87
2019-04-05T08:01:02.737Z,17.53
2019-04-05T08:03:32.094Z,15.77
2019-04-05T08:06:01.837Z,16.20
2019-04-05T08:08:40.507Z,17.17
2019-04-05T08:11:10.213Z,16.27
2019-04-05T08:13:41.580Z,15.67
2019-04-05T08:16:10.930Z,16.83
2019-04-05T08:18:40.264Z,16.90
2019-04-05T08:21:09.506Z,17.50
2019-04-05T08:23:38.873Z,19.27
2019-04-05T08:26:08.752Z,21.23
2019-04-05T08:28:38.296Z,19.10
2019-04-05T08:31:10.708Z,22.97
2019-04-05T08:33:38.569Z,24.73
2019-04-05T08:36:07.878Z,18.87
2019-04-05T08:38:39.710Z,18.73
2019-04-05T08:41:08.162Z,30.10
2019-04-05T08:43:37.474Z,17.23
2019-04-05T08:46:06.921Z,16.60
2019-04-05T08:48:36.200Z,16.17
2019-04-05T08:51:05.822Z,16.70
2019-04-05T08:53:35.690Z,16.23
2019-04-05T08:56:05.918Z,17.00
2019-04-05T08:58:35.256Z,16.33
2019-04-05T09:01:04.614Z,16.07
2019-04-05T09:03:33.891Z,15.67
2019-04-05T09:06:03.206Z,16.70
2019-04-05T09:08:32.435Z,16.63
2019-04-05T09:11:02.030Z,16.73
2019-04-05T09:13:31.375Z,15.93
2019-04-05T09:16:00.738Z,16.17
2019-04-05T09:18:29.978Z,16.60
2019-04-05T09:20:59.361Z,16.80
2019-04-05T09:23:28.617Z,16.17
2019-04-05T09:25:57.950Z,16.17
2019-04-05T09:28:28.083Z,16.57
2019-04-05T09:30:57.325Z,17.00
2019-04-05T09:33:29.621Z,15.57
2019-04-05T09:35:58.813Z,16.27
2019-04-05T09:38:28.124Z,15.27
2019-04-05T09:40:57.391Z,16.53
2019-04-05T09:43:26.642Z,15.97
2019-04-05T09:45:55.971Z,16.73
2019-04-05T09:48:25.660Z,15.67
2019-04-05T09:50:54.891Z,15.77
2019-04-05T09:53:24.202Z,15.13
2019-04-05T09:55:53.526Z,14.83
2019-04-05T09:58:22.860Z,15.20
2019-04-05T10:00:53.005Z,15.47
2019-04-05T10:03:22.255Z,15.40
2019-04-05T10:05:51.582Z,15.33
2019-04-05T10:08:21.069Z,15.53
2019-04-05T10:10:51.197Z,15.63
2019-04-05T10:13:20.425Z,15.33
2019-04-05T10:15:49.714Z,15.67
2019-04-05T10:18:19.076Z,13.80
2019-04-05T10:20:48.407Z,13.07
2019-04-05T10:23:17.750Z,13.67
2019-04-05T10:25:47.775Z,12.97
2019-04-05T10:28:17.124Z,13.33
2019-04-05T10:30:46.370Z,14.80
2019-04-05T10:33:16.292Z,14.03
2019-04-05T10:35:45.617Z,14.07
2019-04-05T10:38:14.853Z,13.20
2019-04-05T10:40:44.541Z,13.10
2019-04-05T10:43:13.823Z,12.87
2019-04-05T10:45:43.218Z,12.33
2019-04-05T10:48:12.474Z,13.03
2019-04-05T10:50:41.745Z,12.93
2019-04-05T10:53:10.972Z,13.27
2019-04-05T10:55:40.315Z,13.50
2019-04-05T10:58:09.741Z,12.40
2019-04-05T11:00:39.187Z,12.40
2019-04-05T11:03:08.503Z,11.63
2019-04-05T11:05:37.861Z,12.03
2019-04-05T11:08:07.125Z,11.73
2019-04-05T11:10:36.478Z,11.93
2019-04-05T11:13:07.803Z,12.40
2019-04-05T11:15:37.126Z,12.23
2019-04-05T11:18:06.403Z,12.40
2019-04-05T11:20:35.634Z,11.77
2019-04-05T11:23:05.114Z,12.60
2019-04-05T11:25:34.394Z,12.93
2019-04-05T11:28:04.307Z,13.07
2019-04-05T11:30:51.574Z,12.70
2019-04-05T11:33:20.918Z,12.30
2019-04-05T11:35:50.161Z,12.50
2019-04-05T11:38:20.363Z,13.00
2019-04-05T11:40:50.526Z,12.28
2019-04-05T11:43:20.767Z,13.60
2019-04-05T11:45:51.470Z,12.90
2019-04-05T11:48:20.826Z,13.00
2019-04-05T11:50:50.147Z,12.70
2019-04-05T11:53:22.002Z,12.47
2019-04-05T11:55:50.984Z,12.30
2019-04-05T11:58:20.234Z,12.20
2019-04-05T12:01:17.812Z,12.80
2019-04-05T12:03:47.131Z,12.97
2019-04-05T12:06:16.358Z,12.40
2019-04-05T12:08:45.705Z,12.47
2019-04-05T12:11:14.965Z,13.20
2019-04-05T12:13:44.218Z,13.28
2019-04-05T12:16:13.482Z,13.17
2019-04-05T12:18:42.660Z,12.57
2019-04-05T12:21:11.999Z,11.60
2019-04-05T12:23:41.474Z,12.37
2019-04-05T12:26:10.762Z,12.93
2019-04-05T12:28:40.033Z,13.50
2019-04-05T12:31:10.487Z,13.90
2019-04-05T12:33:39.860Z,13.60
2019-04-05T12:36:09.290Z,13.27
2019-04-05T12:38:39.123Z,13.20
2019-04-05T12:41:10.825Z,13.67
2019-04-05T12:43:39.424Z,13.38
2019-04-05T12:46:08.748Z,13.40
2019-04-05T12:48:38.385Z,13.93
2019-04-05T12:51:07.665Z,14.93
2019-04-05T12:53:37.020Z,13.43
2019-04-05T12:56:07.713Z,12.90
2019-04-05T12:58:37.055Z,12.85
2019-04-05T13:01:08.304Z,12.82
2019-04-05T13:03:38.024Z,12.47
2019-04-05T13:06:07.444Z,13.47
2019-04-05T13:08:36.767Z,13.70
2019-04-05T13:11:06.124Z,13.18
2019-04-05T13:13:35.355Z,12.60
2019-04-05T13:16:05.202Z,11.95
2019-04-05T13:18:34.528Z,12.23
2019-04-05T13:21:14.308Z,11.97
2019-04-05T13:23:36.550Z,13.20
2019-04-05T13:26:07.175Z,11.65
2019-04-05T13:28:36.490Z,11.63
2019-04-05T13:31:05.968Z,11.03
2019-04-05T13:33:35.378Z,11.28
2019-04-05T13:36:08.193Z,12.27
2019-04-05T13:38:36.170Z,12.85
2019-04-05T13:41:05.489Z,12.50
2019-04-05T13:43:35.155Z,11.40
2019-04-05T13:46:05.943Z,11.22
2019-04-05T13:48:35.280Z,11.55
2019-04-05T13:51:07.123Z,12.35
2019-04-05T13:53:35.530Z,12.20
2019-04-05T13:56:04.975Z,12.33
2019-04-05T13:58:34.830Z,11.85
2019-04-05T14:01:04.731Z,11.68
2019-04-05T14:03:34.055Z,11.50
2019-04-05T14:06:03.435Z,12.00
2019-04-05T14:08:32.669Z,11.53
2019-04-05T14:11:02.034Z,13.23
2019-04-05T14:13:31.400Z,15.27
2019-04-05T14:16:00.652Z,14.25
2019-04-05T14:18:29.966Z,15.95
2019-04-05T14:20:59.293Z,16.20
2019-04-05T14:23:28.502Z,14.28
2019-04-05T14:25:59.917Z,15.08
2019-04-05T14:28:29.148Z,13.70
2019-04-05T14:30:58.407Z,12.88
2019-04-05T14:33:27.792Z,13.30
2019-04-05T14:35:57.034Z,12.82
2019-04-05T14:38:26.295Z,13.85
2019-04-05T14:40:55.619Z,12.78
2019-04-05T14:43:24.953Z,12.65
2019-04-05T14:45:54.336Z,12.65
2019-04-05T14:48:27.304Z,13.38
2019-04-05T14:50:57.485Z,13.03
2019-04-05T14:53:26.026Z,12.90
2019-04-05T14:55:59.074Z,12.60
2019-04-05T14:58:26.914Z,12.90
2019-04-05T15:00:56.305Z,12.82
2019-04-05T15:03:25.579Z,12.03
2019-04-05T15:05:57.390Z,12.45
2019-04-05T15:08:26.647Z,12.60
2019-04-05T15:10:56.874Z,14.33
2019-04-05T15:13:26.713Z,13.68
2019-04-05T15:15:56.803Z,12.88
2019-04-05T15:18:26.375Z,12.98
2019-04-05T15:20:55.724Z,14.68
2019-04-05T15:23:25.064Z,12.98
2019-04-05T15:25:54.396Z,12.73
2019-04-05T15:28:24.770Z,13.08
2019-04-05T15:30:56.254Z,12.05
2019-04-05T15:33:27.839Z,16.80
2019-04-05T15:36:00.155Z,31.20
2019-04-05T15:38:31.330Z,15.70
2019-04-05T15:40:59.406Z,13.80
2019-04-05T15:43:28.682Z,13.30
2019-04-05T15:45:58.027Z,12.58
2019-04-05T15:48:27.287Z,12.18
2019-04-05T15:50:59.083Z,12.93
2019-04-05T15:53:31.632Z,12.58
2019-04-05T15:56:03.862Z,12.43
2019-04-05T15:58:31.519Z,13.90
2019-04-05T16:01:04.138Z,13.38
2019-04-05T16:03:33.176Z,13.67
2019-04-05T16:06:02.450Z,13.60
2019-04-05T16:08:31.933Z,13.50
2019-04-05T16:11:01.337Z,14.15
2019-04-05T16:13:30.585Z,13.63
2019-04-05T16:15:59.903Z,14.37
2019-04-05T16:18:29.210Z,13.23
2019-04-05T16:20:58.788Z,13.63
2019-04-05T16:23:28.051Z,13.40
2019-04-05T16:25:57.399Z,14.38
2019-04-05T16:28:26.709Z,13.90
2019-04-05T16:30:55.992Z,14.90
2019-04-05T16:33:25.299Z,15.87
2019-04-05T16:35:54.552Z,14.43
2019-04-05T16:38:23.809Z,15.53
2019-04-05T16:40:53.176Z,14.33
2019-04-05T16:43:22.489Z,15.60
2019-04-05T16:45:51.735Z,15.30
2019-04-05T16:48:21.252Z,16.20
2019-04-05T16:50:50.563Z,16.13
2019-04-05T16:53:19.825Z,16.00
2019-04-05T16:55:49.593Z,15.20
2019-04-05T16:58:18.847Z,15.10
2019-04-05T17:00:48.164Z,16.67
2019-04-05T17:03:17.456Z,14.63
2019-04-05T17:05:46.689Z,16.40
2019-04-05T17:08:16.005Z,15.90
2019-04-05T17:10:45.175Z,14.77
2019-04-05T17:13:14.427Z,15.30
2019-04-05T17:15:43.819Z,15.70
2019-04-05T17:18:13.131Z,19.97
2019-04-05T17:20:42.434Z,23.97
2019-04-05T17:23:11.769Z,20.33
2019-04-05T17:25:41.015Z,17.80
2019-04-05T17:28:10.379Z,18.70
2019-04-05T17:30:39.702Z,18.40
2019-04-05T17:33:08.973Z,15.67
2019-04-05T17:35:38.239Z,17.87
2019-04-05T17:38:07.553Z,18.67
2019-04-05T17:40:36.900Z,18.37
2019-04-05T17:43:06.151Z,17.67
2019-04-05T17:45:35.419Z,18.93
2019-04-05T17:48:04.745Z,19.37
2019-04-05T17:50:34.963Z,19.17
2019-04-05T17:53:12.502Z,19.33
2019-04-05T17:55:36.585Z,17.77
2019-04-05T17:58:06.611Z,19.77
2019-04-05T18:00:36.241Z,29.87
2019-04-05T18:03:05.582Z,28.23
2019-04-05T18:05:34.862Z,29.77
2019-04-05T18:08:04.123Z,31.90
2019-04-05T18:10:33.299Z,37.53
2019-04-05T18:13:02.646Z,33.57
2019-04-05T18:15:31.896Z,26.17
2019-04-05T18:18:01.218Z,21.60
2019-04-05T18:20:30.571Z,18.40
2019-04-05T18:23:00.003Z,18.63
2019-04-05T18:25:29.327Z,19.97
2019-04-05T18:27:58.590Z,20.33
2019-04-05T18:30:27.902Z,19.10
2019-04-05T18:32:57.275Z,19.73
2019-04-05T18:35:26.591Z,19.77
2019-04-05T18:37:56.234Z,17.53
2019-04-05T18:40:25.574Z,24.37
2019-04-05T18:42:54.897Z,23.10
2019-04-05T18:45:25.030Z,23.03
2019-04-05T18:47:54.286Z,24.90
2019-04-05T18:50:23.607Z,22.80
2019-04-05T18:52:52.955Z,27.17
2019-04-05T18:55:22.700Z,22.87
2019-04-05T18:57:52.016Z,23.43
2019-04-05T19:00:22.840Z,22.67
2019-04-05T19:02:52.144Z,25.10
2019-04-05T19:05:21.481Z,25.53
2019-04-05T19:07:50.764Z,23.50
2019-04-05T19:10:20.088Z,21.77
2019-04-05T19:12:49.920Z,21.13
2019-04-05T19:15:19.331Z,21.43
2019-04-05T19:17:48.582Z,23.23
2019-04-05T19:20:18.381Z,25.53
2019-04-05T19:22:47.631Z,27.93
2019-04-05T19:25:16.997Z,27.77
2019-04-05T19:27:46.358Z,25.97
2019-04-05T19:50:24.705Z,22.67
2019-04-05T19:52:54.058Z,23.97
2019-04-05T19:55:23.391Z,23.47
2019-04-05T19:57:52.654Z,24.53
2019-04-05T20:00:22.134Z,29.17
2019-04-05T20:02:51.371Z,29.03
2019-04-05T20:05:20.724Z,42.37
2019-04-05T20:07:50.485Z,37.60
2019-04-05T20:10:19.864Z,36.43
2019-04-05T20:12:49.196Z,33.97
2019-04-05T20:15:18.874Z,31.80
2019-04-05T20:17:48.227Z,26.30
2019-04-05T20:20:17.548Z,28.20
2019-04-05T20:22:46.908Z,24.23
2019-04-05T20:25:16.271Z,22.63
2019-04-05T20:27:45.594Z,27.87
2019-04-05T20:30:14.887Z,28.73
2019-04-05T20:32:44.198Z,29.23
2019-04-05T20:35:13.538Z,31.07
2019-04-05T20:37:42.823Z,24.83
2019-04-05T20:40:12.444Z,28.10
2019-04-05T20:42:41.772Z,26.83
2019-04-05T20:45:11.227Z,27.93
2019-04-05T20:47:40.555Z,28.77
2019-04-05T20:50:11.592Z,31.43
2019-04-05T20:52:41.147Z,35.07
2019-04-05T20:55:11.089Z,30.70
2019-04-05T20:57:40.427Z,30.60
2019-04-05T21:00:12.195Z,30.00
2019-04-05T21:02:41.491Z,29.50
2019-04-05T21:05:10.814Z,28.17
2019-04-05T21:07:40.029Z,33.57
2019-04-05T21:10:10.901Z,41.83
2019-04-05T21:12:40.154Z,48.43
2019-04-05T21:15:09.420Z,58.30
2019-04-05T21:17:39.183Z,54.67
2019-04-05T21:20:08.618Z,48.53
2019-04-05T21:22:37.981Z,50.07
2019-04-05T21:25:07.295Z,57.67
2019-04-05T21:27:37.584Z,75.10
2019-04-05T21:30:08.113Z,67.27
2019-04-05T21:32:37.346Z,61.63
2019-04-05T21:35:07.060Z,54.50
2019-04-05T21:37:36.320Z,58.20
2019-04-05T21:40:05.826Z,59.33
2019-04-05T21:42:35.193Z,70.77
2019-04-05T21:45:04.814Z,58.53
2019-04-05T21:47:34.400Z,71.90
2019-04-05T21:50:03.863Z,63.67
2019-04-05T21:52:33.173Z,67.40
2019-04-05T21:55:02.419Z,80.67
2019-04-05T21:57:31.671Z,82.80
2019-04-05T22:00:00.991Z,78.47
2019-04-05T22:02:30.683Z,71.30
2019-04-05T22:05:01.319Z,64.63
2019-04-05T22:07:30.735Z,53.93
2019-04-05T22:10:00.046Z,48.10
2019-04-05T22:12:29.328Z,45.17
2019-04-05T22:14:58.562Z,43.73
2019-04-05T22:17:28.306Z,41.07
2019-04-05T22:19:57.616Z,38.50
2019-04-05T22:22:27.477Z,39.50
2019-04-05T22:24:59.550Z,63.87
2019-04-05T22:27:27.790Z,140.50
2019-04-05T22:29:57.124Z,121.80
2019-04-05T22:32:26.472Z,91.10
2019-04-05T22:34:55.798Z,92.13
2019-04-05T22:37:25.196Z,102.90
2019-04-05T22:39:54.447Z,85.67
2019-04-05T22:42:23.685Z,86.80
2019-04-05T22:44:52.926Z,82.50
2019-04-05T22:47:22.168Z,80.10
2019-04-05T22:49:51.846Z,64.43
2019-04-05T22:52:21.090Z,43.70
2019-04-05T22:54:50.402Z,49.00
2019-04-05T22:57:19.734Z,40.03
2019-04-05T22:59:49.113Z,35.07
2019-04-05T23:02:18.372Z,39.37
2019-04-05T23:04:47.700Z,44.90
2019-04-05T23:07:16.952Z,38.70
2019-04-05T23:09:46.273Z,34.77
2019-04-05T23:12:15.523Z,38.03
2019-04-05T23:14:44.783Z,35.40
2019-04-05T23:17:14.015Z,26.80
2019-04-05T23:19:43.574Z,24.87
2019-04-05T23:22:13.058Z,25.17
2019-04-05T23:24:42.282Z,24.57
2019-04-05T23:27:11.539Z,21.27
2019-04-05T23:29:40.757Z,22.37
2019-04-05T23:32:09.990Z,21.80
2019-04-05T23:34:39.342Z,22.23
2019-04-05T23:37:08.569Z,22.07
2019-04-05T23:39:37.815Z,23.77
2019-04-05T23:42:07.145Z,28.53
2019-04-05T23:44:37.039Z,32.70
2019-04-05T23:47:06.918Z,29.67
2019-04-05T23:49:36.442Z,24.37
2019-04-05T23:52:05.697Z,25.23
2019-04-05T23:54:35.006Z,23.03
2019-04-05T23:57:04.287Z,24.50
2019-04-05T23:59:33.603Z,22.63
